sensor_id;sensor_type;location;lat;lon;timestamp;pressure;altitude;pressure_sealevel;temperature;humidity
63306;BME280;50735;52.060;1.248;2023-05-08T00:00:09;101756.93;;;13.04;54.61
63306;BME280;50735;52.060;1.248;2023-05-08T00:02:41;101762.72;;;12.90;54.93
63306;BME280;50735;52.060;1.248;2023-05-08T00:05:12;101759.18;;;12.79;54.72
63306;BME280;50735;52.060;1.248;2023-05-08T00:07:44;101754.95;;;12.76;55.03
63306;BME280;50735;52.060;1.248;2023-05-08T00:10:16;101753.48;;;12.74;54.79
63306;BME280;50735;52.060;1.248;2023-05-08T00:12:47;101748.71;;;13.14;54.69
63306;BME280;50735;52.060;1.248;2023-05-08T00:15:19;101743.96;;;12.72;54.72
63306;BME280;50735;52.060;1.248;2023-05-08T00:17:51;101746.67;;;12.69;54.60
63306;BME280;50735;52.060;1.248;2023-05-08T00:20:23;101746.15;;;12.64;54.55
63306;BME280;50735;52.060;1.248;2023-05-08T00:22:55;101748.71;;;12.58;54.56
63306;BME280;50735;52.060;1.248;2023-05-08T00:25:26;101748.03;;;12.77;54.57
63306;BME280;50735;52.060;1.248;2023-05-08T00:27:58;101747.13;;;12.51;54.59
63306;BME280;50735;52.060;1.248;2023-05-08T00:30:30;101748.46;;;12.46;54.48
63306;BME280;50735;52.060;1.248;2023-05-08T00:33:01;101747.92;;;12.40;54.48
63306;BME280;50735;52.060;1.248;2023-05-08T00:35:33;101746.44;;;12.35;54.22
63306;BME280;50735;52.060;1.248;2023-05-08T00:38:05;101744.51;;;12.27;54.30
63306;BME280;50735;52.060;1.248;2023-05-08T00:40:37;101741.72;;;12.63;54.52
63306;BME280;50735;52.060;1.248;2023-05-08T00:43:09;101742.38;;;12.21;54.51
63306;BME280;50735;52.060;1.248;2023-05-08T00:45:41;101741.54;;;12.57;54.45
63306;BME280;50735;52.060;1.248;2023-05-08T00:48:13;101742.64;;;12.13;54.36
63306;BME280;50735;52.060;1.248;2023-05-08T00:50:45;101741.92;;;12.50;54.49
63306;BME280;50735;52.060;1.248;2023-05-08T00:53:19;101740.67;;;12.48;54.53
63306;BME280;50735;52.060;1.248;2023-05-08T00:55:52;101738.98;;;12.44;54.42
63306;BME280;50735;52.060;1.248;2023-05-08T00:58:26;101743.04;;;12.01;54.36
63306;BME280;50735;52.060;1.248;2023-05-08T01:00:59;101742.64;;;11.97;54.38
63306;BME280;50735;52.060;1.248;2023-05-08T01:03:32;101739.71;;;12.33;54.38
63306;BME280;50735;52.060;1.248;2023-05-08T01:06:06;101745.11;;;12.16;54.31
63306;BME280;50735;52.060;1.248;2023-05-08T01:08:39;101744.54;;;12.26;54.39
63306;BME280;50735;52.060;1.248;2023-05-08T01:11:14;101743.21;;;12.05;54.44
63306;BME280;50735;52.060;1.248;2023-05-08T01:14:06;101744.53;;;12.21;54.47
63306;BME280;50735;52.060;1.248;2023-05-08T01:16:45;101742.20;;;12.17;54.24
63306;BME280;50735;52.060;1.248;2023-05-08T01:19:41;101740.95;;;11.93;54.29
63306;BME280;50735;52.060;1.248;2023-05-08T01:22:43;101738.25;;;12.08;54.14
63306;BME280;50735;52.060;1.248;2023-05-08T01:25:35;101738.80;;;12.01;54.25
63306;BME280;50735;52.060;1.248;2023-05-08T01:30:54;101731.95;;;12.32;54.20
63306;BME280;50735;52.060;1.248;2023-05-08T01:33:32;101731.76;;;11.85;54.29
63306;BME280;50735;52.060;1.248;2023-05-08T01:36:19;101730.93;;;12.02;54.17
63306;BME280;50735;52.060;1.248;2023-05-08T01:39:00;101731.67;;;11.96;53.97
63306;BME280;50735;52.060;1.248;2023-05-08T01:41:36;101726.97;;;11.73;53.82
63306;BME280;50735;52.060;1.248;2023-05-08T01:44:13;101729.47;;;11.65;53.95
63306;BME280;50735;52.060;1.248;2023-05-08T01:46:49;101730.60;;;11.80;53.78
63306;BME280;50735;52.060;1.248;2023-05-08T01:49:25;101724.95;;;11.57;53.76
63306;BME280;50735;52.060;1.248;2023-05-08T01:52:01;101723.50;;;11.46;53.79
63306;BME280;50735;52.060;1.248;2023-05-08T01:54:40;101721.76;;;11.39;53.87
63306;BME280;50735;52.060;1.248;2023-05-08T01:57:13;101721.55;;;11.35;54.05
63306;BME280;50735;52.060;1.248;2023-05-08T01:59:47;101720.85;;;11.52;53.90
63306;BME280;50735;52.060;1.248;2023-05-08T02:02:21;101717.84;;;11.48;53.78
63306;BME280;50735;52.060;1.248;2023-05-08T02:04:53;101716.02;;;11.23;53.79
63306;BME280;50735;52.060;1.248;2023-05-08T02:07:25;101713.00;;;11.58;53.80
63306;BME280;50735;52.060;1.248;2023-05-08T02:09:58;101713.87;;;11.31;53.91
63306;BME280;50735;52.060;1.248;2023-05-08T02:12:31;101712.76;;;11.50;53.97
63306;BME280;50735;52.060;1.248;2023-05-08T02:15:05;101711.24;;;11.08;53.89
63306;BME280;50735;52.060;1.248;2023-05-08T02:17:39;101708.92;;;11.22;53.91
63306;BME280;50735;52.060;1.248;2023-05-08T02:20:13;101705.61;;;11.19;53.91
63306;BME280;50735;52.060;1.248;2023-05-08T02:22:48;101705.02;;;11.14;53.87
63306;BME280;50735;52.060;1.248;2023-05-08T02:25:21;101706.64;;;10.91;53.91
63306;BME280;50735;52.060;1.248;2023-05-08T02:27:54;101704.85;;;11.08;54.01
63306;BME280;50735;52.060;1.248;2023-05-08T02:30:28;101705.70;;;11.05;53.93
63306;BME280;50735;52.060;1.248;2023-05-08T02:33:00;101705.34;;;11.02;53.85
63306;BME280;50735;52.060;1.248;2023-05-08T02:35:35;101705.66;;;11.20;53.83
63306;BME280;50735;52.060;1.248;2023-05-08T02:38:08;101704.08;;;10.95;53.96
63306;BME280;50735;52.060;1.248;2023-05-08T02:40:44;101704.85;;;10.76;54.03
63306;BME280;50735;52.060;1.248;2023-05-08T02:43:16;101706.16;;;10.91;54.03
63306;BME280;50735;52.060;1.248;2023-05-08T02:45:54;101709.48;;;10.88;53.91
63306;BME280;50735;52.060;1.248;2023-05-08T02:48:32;101712.54;;;10.86;53.99
63306;BME280;50735;52.060;1.248;2023-05-08T02:51:17;101711.79;;;10.83;53.93
63306;BME280;50735;52.060;1.248;2023-05-08T02:53:53;101706.57;;;10.82;53.96
63306;BME280;50735;52.060;1.248;2023-05-08T02:56:35;101702.59;;;11.02;53.98
63306;BME280;50735;52.060;1.248;2023-05-08T02:59:13;101700.24;;;11.00;53.90
63306;BME280;50735;52.060;1.248;2023-05-08T03:01:52;101699.54;;;10.97;53.93
63306;BME280;50735;52.060;1.248;2023-05-08T03:04:29;101699.89;;;10.95;53.75
63306;BME280;50735;52.060;1.248;2023-05-08T03:07:03;101694.65;;;10.90;53.72
63306;BME280;50735;52.060;1.248;2023-05-08T03:09:41;101694.07;;;10.62;53.70
63306;BME280;50735;52.060;1.248;2023-05-08T03:12:19;101691.55;;;10.77;53.73
63306;BME280;50735;52.060;1.248;2023-05-08T03:14:59;101690.44;;;10.52;53.74
63306;BME280;50735;52.060;1.248;2023-05-08T03:17:34;101689.94;;;10.68;53.92
63306;BME280;50735;52.060;1.248;2023-05-08T03:20:08;101693.26;;;10.66;54.13
63306;BME280;50735;52.060;1.248;2023-05-08T03:22:43;101698.84;;;10.69;54.51
63306;BME280;50735;52.060;1.248;2023-05-08T03:25:16;101700.08;;;10.63;54.36
63306;BME280;50735;52.060;1.248;2023-05-08T03:27:49;101701.77;;;10.62;54.39
63306;BME280;50735;52.060;1.248;2023-05-08T03:30:23;101698.58;;;10.64;54.23
63306;BME280;50735;52.060;1.248;2023-05-08T03:32:56;101696.37;;;10.62;54.20
63306;BME280;50735;52.060;1.248;2023-05-08T03:35:30;101700.15;;;10.61;54.27
63306;BME280;50735;52.060;1.248;2023-05-08T03:38:02;101695.30;;;10.61;54.35
63306;BME280;50735;52.060;1.248;2023-05-08T03:40:35;101698.18;;;10.60;54.23
63306;BME280;50735;52.060;1.248;2023-05-08T03:43:08;101701.03;;;10.60;54.27
63306;BME280;50735;52.060;1.248;2023-05-08T03:45:40;101702.14;;;10.64;54.32
63306;BME280;50735;52.060;1.248;2023-05-08T03:48:12;101702.44;;;10.43;54.44
63306;BME280;50735;52.060;1.248;2023-05-08T03:50:45;101705.14;;;10.67;54.48
63306;BME280;50735;52.060;1.248;2023-05-08T03:53:17;101703.25;;;10.72;54.54
63306;BME280;50735;52.060;1.248;2023-05-08T03:55:49;101701.96;;;10.77;54.63
63306;BME280;50735;52.060;1.248;2023-05-08T03:58:26;101700.30;;;10.81;54.73
63306;BME280;50735;52.060;1.248;2023-05-08T04:01:04;101700.16;;;10.83;54.68
63306;BME280;50735;52.060;1.248;2023-05-08T04:03:52;101699.18;;;10.60;54.54
63306;BME280;50735;52.060;1.248;2023-05-08T04:06:28;101699.76;;;10.79;54.47
63306;BME280;50735;52.060;1.248;2023-05-08T04:09:06;101697.60;;;10.77;54.34
63306;BME280;50735;52.060;1.248;2023-05-08T04:11:43;101696.42;;;10.50;54.21
63306;BME280;50735;52.060;1.248;2023-05-08T04:14:20;101699.50;;;10.45;54.14
63306;BME280;50735;52.060;1.248;2023-05-08T04:17:00;101699.70;;;10.63;54.18
63306;BME280;50735;52.060;1.248;2023-05-08T04:19:37;101700.43;;;10.37;54.11
63306;BME280;50735;52.060;1.248;2023-05-08T04:22:11;101698.05;;;10.56;54.11
63306;BME280;50735;52.060;1.248;2023-05-08T04:24:44;101694.77;;;10.53;54.08
63306;BME280;50735;52.060;1.248;2023-05-08T04:27:18;101694.97;;;10.67;54.19
63306;BME280;50735;52.060;1.248;2023-05-08T04:29:50;101696.27;;;10.25;54.27
63306;BME280;50735;52.060;1.248;2023-05-08T04:32:22;101699.93;;;10.45;54.39
63306;BME280;50735;52.060;1.248;2023-05-08T04:34:55;101702.33;;;10.24;54.61
63306;BME280;50735;52.060;1.248;2023-05-08T04:37:28;101706.08;;;10.47;54.57
63306;BME280;50735;52.060;1.248;2023-05-08T04:40:01;101709.18;;;10.50;54.69
63306;BME280;50735;52.060;1.248;2023-05-08T04:42:33;101711.33;;;10.52;54.70
63306;BME280;50735;52.060;1.248;2023-05-08T04:45:06;101710.10;;;10.30;54.80
63306;BME280;50735;52.060;1.248;2023-05-08T04:47:38;101709.42;;;10.55;54.90
63306;BME280;50735;52.060;1.248;2023-05-08T04:50:10;101705.40;;;10.57;54.94
63306;BME280;50735;52.060;1.248;2023-05-08T04:52:43;101700.18;;;10.62;55.01
63306;BME280;50735;52.060;1.248;2023-05-08T04:55:15;101703.52;;;10.84;55.07
63306;BME280;50735;52.060;1.248;2023-05-08T04:57:47;101706.40;;;10.71;55.21
63306;BME280;50735;52.060;1.248;2023-05-08T05:00:19;101710.53;;;10.55;55.28
63306;BME280;50735;52.060;1.248;2023-05-08T05:02:51;101712.88;;;10.83;55.42
63306;BME280;50735;52.060;1.248;2023-05-08T05:05:23;101713.18;;;10.90;55.57
63306;BME280;50735;52.060;1.248;2023-05-08T05:07:56;101711.48;;;10.77;55.53
63306;BME280;50735;52.060;1.248;2023-05-08T05:10:29;101711.68;;;11.06;55.59
63306;BME280;50735;52.060;1.248;2023-05-08T05:13:01;101711.69;;;10.73;55.69
63306;BME280;50735;52.060;1.248;2023-05-08T05:15:32;101712.95;;;11.21;55.76
63306;BME280;50735;52.060;1.248;2023-05-08T05:18:04;101713.93;;;11.09;55.89
63306;BME280;50735;52.060;1.248;2023-05-08T05:20:36;101714.28;;;11.39;55.87
63306;BME280;50735;52.060;1.248;2023-05-08T05:23:08;101715.72;;;11.25;55.99
63306;BME280;50735;52.060;1.248;2023-05-08T05:25:39;101718.85;;;11.16;56.03
63306;BME280;50735;52.060;1.248;2023-05-08T05:28:11;101719.09;;;11.22;56.13
63306;BME280;50735;52.060;1.248;2023-05-08T05:30:45;101719.86;;;11.47;56.19
63306;BME280;50735;52.060;1.248;2023-05-08T05:33:17;101717.13;;;11.54;56.19
63306;BME280;50735;52.060;1.248;2023-05-08T05:35:49;101716.91;;;11.60;56.22
63306;BME280;50735;52.060;1.248;2023-05-08T05:38:21;101716.97;;;11.51;56.34
63306;BME280;50735;52.060;1.248;2023-05-08T05:40:53;101716.84;;;11.61;56.44
63306;BME280;50735;52.060;1.248;2023-05-08T05:43:25;101715.72;;;11.74;56.44
63306;BME280;50735;52.060;1.248;2023-05-08T05:46:02;101715.76;;;11.84;56.36
63306;BME280;50735;52.060;1.248;2023-05-08T05:48:35;101716.55;;;11.93;56.25
63306;BME280;50735;52.060;1.248;2023-05-08T05:51:06;101720.26;;;11.92;56.37
63306;BME280;50735;52.060;1.248;2023-05-08T05:53:38;101722.01;;;11.96;56.48
63306;BME280;50735;52.060;1.248;2023-05-08T05:56:10;101725.62;;;12.01;56.55
63306;BME280;50735;52.060;1.248;2023-05-08T05:58:42;101726.97;;;12.05;56.62
63306;BME280;50735;52.060;1.248;2023-05-08T06:01:13;101727.52;;;12.52;56.67
63306;BME280;50735;52.060;1.248;2023-05-08T06:03:45;101730.30;;;12.22;56.73
63306;BME280;50735;52.060;1.248;2023-05-08T06:06:17;101730.21;;;12.29;56.71
63306;BME280;50735;52.060;1.248;2023-05-08T06:08:49;101732.76;;;12.35;56.72
63306;BME280;50735;52.060;1.248;2023-05-08T06:11:21;101732.42;;;12.46;56.74
63306;BME280;50735;52.060;1.248;2023-05-08T06:13:53;101730.88;;;12.60;56.80
63306;BME280;50735;52.060;1.248;2023-05-08T06:16:25;101728.13;;;12.55;56.80
63306;BME280;50735;52.060;1.248;2023-05-08T06:18:57;101728.32;;;12.49;56.76
63306;BME280;50735;52.060;1.248;2023-05-08T06:21:28;101728.43;;;12.88;56.69
63306;BME280;50735;52.060;1.248;2023-05-08T06:24:00;101731.23;;;12.86;56.54
63306;BME280;50735;52.060;1.248;2023-05-08T06:26:31;101729.60;;;13.02;56.48
63306;BME280;50735;52.060;1.248;2023-05-08T06:29:03;101731.61;;;13.11;56.54
63306;BME280;50735;52.060;1.248;2023-05-08T06:31:35;101730.85;;;13.16;56.90
63306;BME280;50735;52.060;1.248;2023-05-08T06:34:06;101730.83;;;13.27;56.98
63306;BME280;50735;52.060;1.248;2023-05-08T06:36:38;101729.77;;;13.36;56.65
63306;BME280;50735;52.060;1.248;2023-05-08T06:39:10;101733.20;;;13.40;56.59
63306;BME280;50735;52.060;1.248;2023-05-08T06:41:42;101735.68;;;13.36;56.84
63306;BME280;50735;52.060;1.248;2023-05-08T06:44:14;101738.93;;;13.35;56.59
63306;BME280;50735;52.060;1.248;2023-05-08T06:46:46;101739.58;;;13.51;56.51
63306;BME280;50735;52.060;1.248;2023-05-08T06:49:18;101739.49;;;13.51;56.20
63306;BME280;50735;52.060;1.248;2023-05-08T06:51:50;101741.81;;;13.71;55.76
63306;BME280;50735;52.060;1.248;2023-05-08T06:54:22;101746.18;;;13.93;55.39
63306;BME280;50735;52.060;1.248;2023-05-08T06:56:53;101744.05;;;14.07;55.38
63306;BME280;50735;52.060;1.248;2023-05-08T06:59:26;101742.50;;;14.21;54.81
63306;BME280;50735;52.060;1.248;2023-05-08T07:01:58;101744.59;;;14.62;54.20
63306;BME280;50735;52.060;1.248;2023-05-08T07:04:29;101748.69;;;14.83;53.22
63306;BME280;50735;52.060;1.248;2023-05-08T07:07:00;101749.38;;;15.03;53.01
63306;BME280;50735;52.060;1.248;2023-05-08T07:09:32;101751.12;;;15.16;52.75
63306;BME280;50735;52.060;1.248;2023-05-08T07:12:04;101748.05;;;15.17;51.83
63306;BME280;50735;52.060;1.248;2023-05-08T07:14:36;101746.05;;;14.90;51.92
63306;BME280;50735;52.060;1.248;2023-05-08T07:17:08;101748.29;;;14.97;52.27
63306;BME280;50735;52.060;1.248;2023-05-08T07:19:40;101749.23;;;15.38;52.00
63306;BME280;50735;52.060;1.248;2023-05-08T07:22:12;101747.64;;;15.39;52.06
63306;BME280;50735;52.060;1.248;2023-05-08T07:24:44;101746.68;;;15.49;51.27
63306;BME280;50735;52.060;1.248;2023-05-08T07:27:16;101745.04;;;15.23;50.44
63306;BME280;50735;52.060;1.248;2023-05-08T07:29:48;101744.32;;;15.46;50.79
63306;BME280;50735;52.060;1.248;2023-05-08T07:32:20;101741.87;;;15.63;50.98
63306;BME280;50735;52.060;1.248;2023-05-08T07:34:52;101740.99;;;15.18;50.67
63306;BME280;50735;52.060;1.248;2023-05-08T07:37:24;101741.61;;;15.44;49.77
63306;BME280;50735;52.060;1.248;2023-05-08T07:39:56;101743.97;;;15.75;49.25
63306;BME280;50735;52.060;1.248;2023-05-08T07:42:28;101744.11;;;15.28;49.63
63306;BME280;50735;52.060;1.248;2023-05-08T07:44:59;101736.28;;;15.65;49.63
63306;BME280;50735;52.060;1.248;2023-05-08T07:47:31;101737.01;;;15.53;49.65
63306;BME280;50735;52.060;1.248;2023-05-08T07:50:03;101734.87;;;15.72;50.12
63306;BME280;50735;52.060;1.248;2023-05-08T07:52:36;101735.86;;;16.00;50.16
63306;BME280;50735;52.060;1.248;2023-05-08T07:55:08;101736.38;;;15.76;49.47
63306;BME280;50735;52.060;1.248;2023-05-08T07:57:41;101743.92;;;15.46;49.94
63306;BME280;50735;52.060;1.248;2023-05-08T08:00:15;101737.96;;;15.83;49.98
63306;BME280;50735;52.060;1.248;2023-05-08T08:02:47;101737.33;;;15.67;50.23
63306;BME280;50735;52.060;1.248;2023-05-08T08:05:18;101737.71;;;15.83;50.25
63306;BME280;50735;52.060;1.248;2023-05-08T08:07:51;101737.52;;;16.01;49.45
63306;BME280;50735;52.060;1.248;2023-05-08T08:10:22;101735.02;;;15.39;49.62
63306;BME280;50735;52.060;1.248;2023-05-08T08:12:55;101739.93;;;15.32;50.09
63306;BME280;50735;52.060;1.248;2023-05-08T08:15:27;101738.60;;;15.68;50.00
63306;BME280;50735;52.060;1.248;2023-05-08T08:17:59;101740.68;;;15.79;49.89
63306;BME280;50735;52.060;1.248;2023-05-08T08:20:31;101742.62;;;15.56;49.63
63306;BME280;50735;52.060;1.248;2023-05-08T08:23:03;101746.49;;;15.45;50.04
63306;BME280;50735;52.060;1.248;2023-05-08T08:25:36;101742.93;;;15.58;49.91
63306;BME280;50735;52.060;1.248;2023-05-08T08:28:08;101744.02;;;15.69;50.13
63306;BME280;50735;52.060;1.248;2023-05-08T08:30:39;101738.90;;;15.89;49.98
63306;BME280;50735;52.060;1.248;2023-05-08T08:33:11;101738.92;;;15.96;49.59
63306;BME280;50735;52.060;1.248;2023-05-08T08:35:43;101732.55;;;16.38;49.01
63306;BME280;50735;52.060;1.248;2023-05-08T08:38:15;101734.59;;;16.17;47.59
63306;BME280;50735;52.060;1.248;2023-05-08T08:40:47;101727.36;;;17.05;47.18
63306;BME280;50735;52.060;1.248;2023-05-08T08:43:19;101723.39;;;17.55;46.59
63306;BME280;50735;52.060;1.248;2023-05-08T08:45:51;101716.59;;;17.63;44.21
63306;BME280;50735;52.060;1.248;2023-05-08T08:48:25;101711.22;;;18.11;44.12
63306;BME280;50735;52.060;1.248;2023-05-08T08:51:01;101709.29;;;18.45;43.66
63306;BME280;50735;52.060;1.248;2023-05-08T08:53:42;101713.09;;;18.23;41.86
63306;BME280;50735;52.060;1.248;2023-05-08T08:56:15;101712.11;;;18.66;41.97
63306;BME280;50735;52.060;1.248;2023-05-08T08:58:48;101705.51;;;18.87;41.96
63306;BME280;50735;52.060;1.248;2023-05-08T09:01:23;101708.04;;;19.06;40.97
63306;BME280;50735;52.060;1.248;2023-05-08T09:03:57;101706.19;;;19.06;40.77
63306;BME280;50735;52.060;1.248;2023-05-08T09:06:28;101701.61;;;19.39;41.36
63306;BME280;50735;52.060;1.248;2023-05-08T09:09:01;101700.85;;;19.29;40.90
63306;BME280;50735;52.060;1.248;2023-05-08T09:11:33;101694.87;;;19.41;40.28
63306;BME280;50735;52.060;1.248;2023-05-08T09:14:05;101691.45;;;19.80;39.79
63306;BME280;50735;52.060;1.248;2023-05-08T09:16:37;101683.78;;;20.10;38.81
63306;BME280;50735;52.060;1.248;2023-05-08T09:19:12;101686.54;;;20.18;38.85
63306;BME280;50735;52.060;1.248;2023-05-08T09:21:44;101676.20;;;20.65;37.65
63306;BME280;50735;52.060;1.248;2023-05-08T09:24:17;101675.80;;;21.23;37.91
63306;BME280;50735;52.060;1.248;2023-05-08T09:26:48;101677.91;;;21.37;36.65
63306;BME280;50735;52.060;1.248;2023-05-08T09:29:21;101683.18;;;20.98;36.56
63306;BME280;50735;52.060;1.248;2023-05-08T09:31:52;101685.70;;;20.69;36.76
63306;BME280;50735;52.060;1.248;2023-05-08T09:34:25;101680.77;;;20.37;37.62
63306;BME280;50735;52.060;1.248;2023-05-08T09:37:10;101685.73;;;20.01;38.40
63306;BME280;50735;52.060;1.248;2023-05-08T09:39:42;101680.62;;;19.47;38.84
63306;BME280;50735;52.060;1.248;2023-05-08T09:42:13;101680.14;;;18.93;39.88
63306;BME280;50735;52.060;1.248;2023-05-08T09:44:47;101679.12;;;18.90;40.36
63306;BME280;50735;52.060;1.248;2023-05-08T09:47:21;101676.06;;;18.93;40.18
63306;BME280;50735;52.060;1.248;2023-05-08T09:49:57;101678.36;;;18.66;40.83
63306;BME280;50735;52.060;1.248;2023-05-08T09:52:31;101674.01;;;18.88;41.01
63306;BME280;50735;52.060;1.248;2023-05-08T09:55:05;101673.21;;;18.76;41.07
63306;BME280;50735;52.060;1.248;2023-05-08T09:57:38;101683.27;;;17.98;41.58
63306;BME280;50735;52.060;1.248;2023-05-08T10:00:12;101676.87;;;18.02;42.23
63306;BME280;50735;52.060;1.248;2023-05-08T10:02:53;101675.65;;;17.98;43.52
63306;BME280;50735;52.060;1.248;2023-05-08T10:05:28;101677.53;;;18.19;42.85
63306;BME280;50735;52.060;1.248;2023-05-08T10:08:17;101678.90;;;18.14;42.83
63306;BME280;50735;52.060;1.248;2023-05-08T10:10:49;101678.34;;;18.05;43.67
63306;BME280;50735;52.060;1.248;2023-05-08T10:13:21;101681.00;;;18.14;43.19
63306;BME280;50735;52.060;1.248;2023-05-08T10:15:53;101682.13;;;17.98;43.58
63306;BME280;50735;52.060;1.248;2023-05-08T10:18:29;101672.06;;;17.81;44.11
63306;BME280;50735;52.060;1.248;2023-05-08T10:21:05;101666.59;;;18.22;43.73
63306;BME280;50735;52.060;1.248;2023-05-08T10:23:38;101667.23;;;18.00;42.72
63306;BME280;50735;52.060;1.248;2023-05-08T10:26:13;101668.80;;;18.32;42.51
63306;BME280;50735;52.060;1.248;2023-05-08T10:28:49;101668.25;;;18.32;42.83
63306;BME280;50735;52.060;1.248;2023-05-08T10:31:27;101670.18;;;18.22;43.20
63306;BME280;50735;52.060;1.248;2023-05-08T10:34:00;101676.10;;;17.60;42.64
63306;BME280;50735;52.060;1.248;2023-05-08T10:36:34;101674.36;;;17.73;42.37
63306;BME280;50735;52.060;1.248;2023-05-08T10:39:07;101676.88;;;17.60;42.56
63306;BME280;50735;52.060;1.248;2023-05-08T10:41:40;101674.68;;;17.78;42.27
63306;BME280;50735;52.060;1.248;2023-05-08T10:44:12;101669.98;;;17.59;42.99
63306;BME280;50735;52.060;1.248;2023-05-08T10:46:50;101670.04;;;17.62;43.94
63306;BME280;50735;52.060;1.248;2023-05-08T10:49:29;101669.61;;;17.73;43.71
63306;BME280;50735;52.060;1.248;2023-05-08T10:52:11;101673.90;;;17.37;41.26
63306;BME280;50735;52.060;1.248;2023-05-08T10:55:08;101665.25;;;17.82;41.42
63306;BME280;50735;52.060;1.248;2023-05-08T10:58:01;101663.97;;;17.62;40.98
63306;BME280;50735;52.060;1.248;2023-05-08T11:01:09;101659.91;;;17.47;41.52
63306;BME280;50735;52.060;1.248;2023-05-08T11:03:44;101654.80;;;17.70;40.19
63306;BME280;50735;52.060;1.248;2023-05-08T11:06:17;101652.71;;;17.73;40.66
63306;BME280;50735;52.060;1.248;2023-05-08T11:09:19;101655.26;;;17.67;39.70
63306;BME280;50735;52.060;1.248;2023-05-08T11:12:06;101651.53;;;17.51;40.53
63306;BME280;50735;52.060;1.248;2023-05-08T11:14:41;101644.58;;;17.79;40.69
63306;BME280;50735;52.060;1.248;2023-05-08T11:17:22;101640.41;;;17.91;39.93
63306;BME280;50735;52.060;1.248;2023-05-08T11:19:56;101644.24;;;17.55;39.41
63306;BME280;50735;52.060;1.248;2023-05-08T11:22:29;101635.70;;;17.89;38.71
63306;BME280;50735;52.060;1.248;2023-05-08T11:25:04;101640.49;;;17.87;39.19
63306;BME280;50735;52.060;1.248;2023-05-08T11:27:40;101628.20;;;18.55;39.23
63306;BME280;50735;52.060;1.248;2023-05-08T11:30:39;101627.55;;;18.55;39.65
63306;BME280;50735;52.060;1.248;2023-05-08T11:33:13;101624.90;;;18.63;39.54
63306;BME280;50735;52.060;1.248;2023-05-08T11:35:55;101616.34;;;18.66;39.87
63306;BME280;50735;52.060;1.248;2023-05-08T11:38:29;101613.63;;;18.28;40.42
63306;BME280;50735;52.060;1.248;2023-05-08T11:41:04;101614.30;;;18.87;40.17
63306;BME280;50735;52.060;1.248;2023-05-08T11:44:23;101616.03;;;19.06;39.93
63306;BME280;50735;52.060;1.248;2023-05-08T11:46:56;101606.85;;;18.35;41.58
63306;BME280;50735;52.060;1.248;2023-05-08T11:49:27;101612.52;;;18.03;40.94
63306;BME280;50735;52.060;1.248;2023-05-08T11:51:59;101614.23;;;18.19;41.24
63306;BME280;50735;52.060;1.248;2023-05-08T11:54:32;101607.58;;;17.91;41.38
63306;BME280;50735;52.060;1.248;2023-05-08T11:57:04;101607.83;;;17.86;41.70
63306;BME280;50735;52.060;1.248;2023-05-08T11:59:35;101605.78;;;18.22;41.32
63306;BME280;50735;52.060;1.248;2023-05-08T12:02:07;101605.49;;;18.02;41.73
63306;BME280;50735;52.060;1.248;2023-05-08T12:04:43;101606.75;;;17.57;42.49
63306;BME280;50735;52.060;1.248;2023-05-08T12:07:15;101608.95;;;17.22;42.50
63306;BME280;50735;52.060;1.248;2023-05-08T12:09:47;101613.02;;;17.10;42.90
63306;BME280;50735;52.060;1.248;2023-05-08T12:12:18;101613.77;;;17.39;42.98
63306;BME280;50735;52.060;1.248;2023-05-08T12:14:50;101609.84;;;17.44;43.04
63306;BME280;50735;52.060;1.248;2023-05-08T12:17:22;101614.11;;;17.38;42.94
63306;BME280;50735;52.060;1.248;2023-05-08T12:19:54;101621.96;;;17.44;42.12
63306;BME280;50735;52.060;1.248;2023-05-08T12:22:26;101614.66;;;17.79;42.30
63306;BME280;50735;52.060;1.248;2023-05-08T12:24:58;101612.28;;;17.99;41.64
63306;BME280;50735;52.060;1.248;2023-05-08T12:27:29;101621.13;;;17.89;41.35
63306;BME280;50735;52.060;1.248;2023-05-08T12:30:05;101623.72;;;18.25;40.04
63306;BME280;50735;52.060;1.248;2023-05-08T12:32:38;101621.89;;;18.37;39.82
63306;BME280;50735;52.060;1.248;2023-05-08T12:35:11;101621.82;;;18.29;39.78
63306;BME280;50735;52.060;1.248;2023-05-08T12:37:44;101612.74;;;18.28;39.49
63306;BME280;50735;52.060;1.248;2023-05-08T12:40:26;101619.67;;;18.22;39.11
63306;BME280;50735;52.060;1.248;2023-05-08T12:43:00;101615.71;;;18.77;38.41
63306;BME280;50735;52.060;1.248;2023-05-08T12:45:34;101622.14;;;18.15;38.72
63306;BME280;50735;52.060;1.248;2023-05-08T12:48:08;101616.01;;;18.32;38.33
63306;BME280;50735;52.060;1.248;2023-05-08T12:50:42;101620.02;;;18.33;37.86
63306;BME280;50735;52.060;1.248;2023-05-08T12:53:15;101623.20;;;18.39;39.17
63306;BME280;50735;52.060;1.248;2023-05-08T12:55:50;101631.99;;;18.73;38.62
63306;BME280;50735;52.060;1.248;2023-05-08T12:58:24;101637.38;;;18.50;39.37
63306;BME280;50735;52.060;1.248;2023-05-08T13:01:06;101635.42;;;17.89;39.88
63306;BME280;50735;52.060;1.248;2023-05-08T13:03:38;101636.73;;;17.82;40.28
63306;BME280;50735;52.060;1.248;2023-05-08T13:06:18;101635.44;;;17.76;40.86
63306;BME280;50735;52.060;1.248;2023-05-08T13:08:53;101633.83;;;17.94;40.31
63306;BME280;50735;52.060;1.248;2023-05-08T13:11:28;101642.25;;;17.66;40.82
63306;BME280;50735;52.060;1.248;2023-05-08T13:14:00;101658.45;;;17.47;41.26
63306;BME280;50735;52.060;1.248;2023-05-08T13:16:41;101653.98;;;17.14;41.51
63306;BME280;50735;52.060;1.248;2023-05-08T13:19:13;101653.85;;;17.21;42.16
63306;BME280;50735;52.060;1.248;2023-05-08T13:21:44;101656.77;;;17.01;42.16
63306;BME280;50735;52.060;1.248;2023-05-08T13:24:16;101657.66;;;16.67;42.49
63306;BME280;50735;52.060;1.248;2023-05-08T13:26:48;101648.44;;;16.34;43.19
63306;BME280;50735;52.060;1.248;2023-05-08T13:29:19;101641.32;;;16.39;43.54